createdAt,value
2023-12-23T00:01:05.261Z,17.97
2023-12-23T00:03:32.003Z,18.22
2023-12-23T00:06:01.047Z,17.97
2023-12-23T00:08:30.343Z,18.17
2023-12-23T00:10:58.748Z,18.97
2023-12-23T00:13:28.832Z,19.15
2023-12-23T00:15:55.557Z,18.41
2023-12-23T00:18:22.417Z,18.56
2023-12-23T00:20:49.212Z,18.43
2023-12-23T00:23:16.512Z,18.37
2023-12-23T00:25:43.998Z,18.73
2023-12-23T00:28:11.302Z,18.55
2023-12-23T00:30:39.964Z,18.77
2023-12-23T00:33:08.051Z,18.70
2023-12-23T00:35:38.073Z,18.59
2023-12-23T00:38:05.213Z,18.94
2023-12-23T00:40:32.806Z,18.90
2023-12-23T00:42:59.996Z,18.45
2023-12-23T00:45:26.767Z,18.48
2023-12-23T00:47:56.042Z,18.05
2023-12-23T00:50:23.349Z,18.58
2023-12-23T00:52:51.119Z,18.75
2023-12-23T00:55:17.788Z,18.74
2023-12-23T00:57:44.983Z,18.58
2023-12-23T01:00:12.760Z,18.71
2023-12-23T01:02:40.302Z,18.50
2023-12-23T01:05:09.799Z,18.58
2023-12-23T01:07:36.891Z,18.91
2023-12-23T01:10:03.810Z,18.66
2023-12-23T01:12:31.949Z,18.60
2023-12-23T01:14:59.359Z,18.71
2023-12-23T01:17:26.074Z,18.62
2023-12-23T01:19:54.377Z,18.64
2023-12-23T01:22:23.635Z,18.45
2023-12-23T01:24:50.801Z,19.02
2023-12-23T01:27:17.638Z,18.30
2023-12-23T01:29:45.617Z,18.64
2023-12-23T01:32:13.523Z,18.31
2023-12-23T01:34:40.821Z,19.02
2023-12-23T01:37:09.603Z,18.92
2023-12-23T01:39:38.473Z,19.12
2023-12-23T01:42:06.329Z,18.61
2023-12-23T01:44:33.197Z,18.45
2023-12-23T01:47:02.485Z,19.09
2023-12-23T01:49:31.691Z,18.62
2023-12-23T01:52:00.807Z,19.08
2023-12-23T01:54:30.138Z,19.07
2023-12-23T01:57:00.447Z,19.49
2023-12-23T01:59:27.249Z,19.55
2023-12-23T02:01:58.746Z,18.44
2023-12-23T02:04:26.460Z,18.95
2023-12-23T02:06:53.639Z,18.94
2023-12-23T02:09:21.259Z,19.19
2023-12-23T02:11:58.788Z,19.17
2023-12-23T02:14:37.186Z,18.85
2023-12-23T02:17:04.163Z,18.33
2023-12-23T02:19:31.350Z,19.29
2023-12-23T02:22:00.361Z,18.94
2023-12-23T02:24:27.768Z,19.23
2023-12-23T02:27:01.532Z,19.56
2023-12-23T02:29:32.114Z,19.10
2023-12-23T02:32:01.642Z,18.81
2023-12-23T02:34:29.255Z,19.07
2023-12-23T02:36:56.432Z,18.77
2023-12-23T02:39:26.289Z,18.70
2023-12-23T02:41:53.230Z,18.69
2023-12-23T02:44:20.513Z,18.59
2023-12-23T02:46:47.934Z,18.36
2023-12-23T02:49:15.916Z,18.59
2023-12-23T02:51:43.117Z,18.42
2023-12-23T02:54:10.504Z,18.57
2023-12-23T02:56:41.411Z,17.44
2023-12-23T02:59:08.132Z,18.42
2023-12-23T03:01:35.451Z,18.65
2023-12-23T03:04:04.037Z,18.77
2023-12-23T03:06:31.475Z,18.95
2023-12-23T03:08:58.781Z,18.51
2023-12-23T03:11:26.260Z,18.40
2023-12-23T03:13:55.144Z,18.22
2023-12-23T03:16:22.401Z,18.39
2023-12-23T03:18:50.148Z,18.87
2023-12-23T03:21:17.686Z,18.39
2023-12-23T03:23:45.435Z,18.91
2023-12-23T03:26:13.095Z,19.14
2023-12-23T03:28:39.848Z,18.81
2023-12-23T03:31:08.698Z,18.78
2023-12-23T03:33:37.623Z,18.36
2023-12-23T03:36:05.486Z,17.78
2023-12-23T03:38:32.760Z,17.17
2023-12-23T03:41:00.228Z,16.70
2023-12-23T03:43:27.521Z,16.88
2023-12-23T03:45:54.787Z,17.37
2023-12-23T03:48:24.145Z,17.58
2023-12-23T03:50:51.601Z,17.58
2023-12-23T03:53:19.268Z,17.70
2023-12-23T03:55:46.577Z,17.61
2023-12-23T03:58:13.851Z,17.24
2023-12-23T04:00:41.871Z,17.03
2023-12-23T04:03:09.101Z,17.25
2023-12-23T04:05:37.826Z,17.34
2023-12-23T04:08:06.107Z,18.00
2023-12-23T04:10:33.322Z,17.95
2023-12-23T04:13:00.740Z,17.56
2023-12-23T04:15:28.475Z,18.07
2023-12-23T04:17:56.100Z,18.36
2023-12-23T04:20:23.563Z,18.19
2023-12-23T04:22:53.267Z,18.40
2023-12-23T04:25:22.902Z,17.85
2023-12-23T04:27:51.906Z,17.80
2023-12-23T04:30:19.784Z,18.53
2023-12-23T04:32:47.495Z,18.22
2023-12-23T04:35:15.110Z,17.40
2023-12-23T04:37:43.088Z,18.29
2023-12-23T04:40:12.558Z,18.31
2023-12-23T04:42:39.791Z,18.07
2023-12-23T04:45:08.164Z,17.97
2023-12-23T04:47:35.460Z,18.01
2023-12-23T04:50:05.359Z,18.16
2023-12-23T04:52:32.570Z,18.73
2023-12-23T04:55:01.313Z,18.77
2023-12-23T04:57:30.188Z,18.48
2023-12-23T04:59:57.359Z,18.47
2023-12-23T05:02:24.562Z,18.87
2023-12-23T05:04:52.093Z,18.24
2023-12-23T05:07:19.358Z,17.86
2023-12-23T05:09:46.657Z,18.33
2023-12-23T05:12:14.476Z,18.24
2023-12-23T05:14:43.406Z,18.00
2023-12-23T05:17:10.790Z,18.75
2023-12-23T05:19:41.285Z,18.23
2023-12-23T05:22:08.725Z,18.44
2023-12-23T05:24:38.487Z,18.63
2023-12-23T05:27:06.883Z,18.78
2023-12-23T05:29:34.374Z,18.52
2023-12-23T05:32:03.702Z,18.70
2023-12-23T05:34:31.003Z,18.96
2023-12-23T05:36:58.452Z,19.47
2023-12-23T05:39:25.318Z,18.72
2023-12-23T05:41:52.617Z,18.51
2023-12-23T05:44:19.368Z,18.71
2023-12-23T05:46:49.394Z,18.69
2023-12-23T05:49:20.363Z,18.67
2023-12-23T05:51:49.025Z,18.30
2023-12-23T05:54:16.284Z,18.58
2023-12-23T05:56:43.545Z,18.50
2023-12-23T05:59:12.013Z,18.27
2023-12-23T06:01:39.262Z,18.41
2023-12-23T06:04:06.040Z,18.34
2023-12-23T06:06:37.581Z,18.24
2023-12-23T06:09:04.594Z,18.34
2023-12-23T06:11:32.368Z,18.08
2023-12-23T06:14:00.673Z,18.76
2023-12-23T06:16:28.107Z,18.77
2023-12-23T06:18:55.542Z,18.23
2023-12-23T06:21:22.984Z,18.15
2023-12-23T06:23:51.875Z,17.99
2023-12-23T06:26:19.286Z,17.81
2023-12-23T06:28:46.272Z,17.51
2023-12-23T06:31:13.738Z,17.16
2023-12-23T06:33:41.151Z,17.26
2023-12-23T06:36:09.805Z,17.20
2023-12-23T06:38:36.593Z,17.41
2023-12-23T06:41:05.823Z,17.50
2023-12-23T06:43:45.779Z,17.43
2023-12-23T06:46:18.761Z,17.86
2023-12-23T06:48:45.845Z,17.91
2023-12-23T06:51:13.197Z,17.34
2023-12-23T06:53:41.051Z,17.14
2023-12-23T06:56:12.698Z,16.93
2023-12-23T06:58:39.514Z,17.41
2023-12-23T07:01:07.310Z,17.76
2023-12-23T07:03:34.629Z,18.27
2023-12-23T07:06:02.170Z,18.07
2023-12-23T07:08:29.890Z,17.80
2023-12-23T07:10:57.228Z,18.32
2023-12-23T07:13:26.064Z,17.85
2023-12-23T07:15:53.851Z,17.81
2023-12-23T07:18:20.617Z,17.94
2023-12-23T07:20:48.251Z,17.41
2023-12-23T07:23:15.777Z,17.53
2023-12-23T07:25:43.307Z,17.85
2023-12-23T07:28:11.979Z,17.60
2023-12-23T07:30:41.585Z,17.79
2023-12-23T07:33:08.492Z,17.67
2023-12-23T07:35:35.798Z,17.86
2023-12-23T07:38:03.303Z,17.51
2023-12-23T07:40:32.409Z,18.24
2023-12-23T07:43:00.766Z,18.30
2023-12-23T07:45:28.060Z,17.89
2023-12-23T07:47:56.948Z,18.35
2023-12-23T07:50:24.109Z,17.72
2023-12-23T07:52:52.357Z,17.61
2023-12-23T07:55:19.856Z,17.97
2023-12-23T07:57:47.599Z,17.54
2023-12-23T08:00:15.581Z,17.63
2023-12-23T08:02:43.054Z,17.54
2023-12-23T08:05:14.194Z,17.18
2023-12-23T08:07:43.589Z,17.57
2023-12-23T08:10:11.623Z,17.55
2023-12-23T08:12:40.198Z,17.20
2023-12-23T08:15:09.851Z,17.45
2023-12-23T08:17:38.030Z,17.48
2023-12-23T08:20:06.790Z,17.77
2023-12-23T08:22:35.789Z,17.59
2023-12-23T08:25:03.153Z,18.32
2023-12-23T08:27:30.817Z,18.33
2023-12-23T08:29:58.308Z,17.30
2023-12-23T08:32:25.778Z,17.75
2023-12-23T08:34:53.853Z,17.88
2023-12-23T08:37:20.641Z,17.62
2023-12-23T08:39:49.428Z,17.66
2023-12-23T08:42:16.922Z,17.82
2023-12-23T08:44:44.267Z,17.72
2023-12-23T08:47:11.418Z,18.01
2023-12-23T08:49:44.050Z,17.57
2023-12-23T08:52:11.231Z,17.90
2023-12-23T08:54:41.820Z,18.45
2023-12-23T08:57:11.790Z,17.82
2023-12-23T08:59:39.031Z,18.63
2023-12-23T09:02:07.657Z,18.56
2023-12-23T09:04:35.149Z,18.42
2023-12-23T09:07:02.215Z,17.89
2023-12-23T09:09:28.950Z,18.26
2023-12-23T09:11:56.417Z,18.49
2023-12-23T09:14:25.097Z,18.77
2023-12-23T09:16:52.419Z,18.82
2023-12-23T09:19:19.587Z,18.28
2023-12-23T09:21:47.670Z,17.85
2023-12-23T09:24:16.015Z,18.20
2023-12-23T09:26:43.367Z,18.65
2023-12-23T09:29:11.082Z,18.55
2023-12-23T09:31:39.849Z,18.69
2023-12-23T09:34:08.138Z,18.43
2023-12-23T09:36:35.954Z,18.97
2023-12-23T09:39:04.172Z,19.35
2023-12-23T09:41:32.092Z,18.76
2023-12-23T09:43:59.011Z,19.02
2023-12-23T09:46:26.723Z,18.98
2023-12-23T09:48:55.993Z,18.98
2023-12-23T09:51:26.899Z,18.61
2023-12-23T09:53:59.297Z,19.14
2023-12-23T09:56:29.286Z,18.79
2023-12-23T09:58:56.835Z,19.17
2023-12-23T10:01:24.433Z,19.29
2023-12-23T10:03:52.884Z,19.21
2023-12-23T10:06:22.702Z,19.03
2023-12-23T10:08:50.520Z,19.13
2023-12-23T10:11:17.992Z,18.99
2023-12-23T10:13:45.417Z,18.87
2023-12-23T10:16:14.910Z,18.61
2023-12-23T10:18:41.728Z,18.69
2023-12-23T10:21:10.827Z,18.76
2023-12-23T10:23:39.336Z,18.69
2023-12-23T10:26:06.845Z,18.48
2023-12-23T10:28:36.436Z,18.41
2023-12-23T10:31:08.137Z,18.46
2023-12-23T10:33:39.748Z,18.02
2023-12-23T10:36:09.360Z,17.99
2023-12-23T10:38:39.983Z,18.35
2023-12-23T10:41:19.244Z,17.89
2023-12-23T10:43:48.009Z,17.85
2023-12-23T10:46:16.154Z,18.13
2023-12-23T10:48:43.701Z,18.33
2023-12-23T10:51:12.760Z,18.64
2023-12-23T10:53:40.727Z,18.35
2023-12-23T10:56:12.996Z,18.72
2023-12-23T10:58:41.546Z,18.49
2023-12-23T11:01:12.648Z,18.73
2023-12-23T11:03:40.890Z,18.53
2023-12-23T11:06:10.369Z,17.93
2023-12-23T11:08:38.638Z,18.35
2023-12-23T11:11:05.923Z,18.54
2023-12-23T11:13:34.767Z,18.08
2023-12-23T11:16:02.369Z,18.23
2023-12-23T11:18:30.168Z,18.37
2023-12-23T11:20:57.813Z,18.94
2023-12-23T11:23:35.396Z,18.88
2023-12-23T11:26:04.040Z,18.26
2023-12-23T11:28:33.016Z,18.95
2023-12-23T11:31:01.885Z,18.82
2023-12-23T11:33:31.739Z,18.32
2023-12-23T11:36:01.636Z,18.45
2023-12-23T11:38:31.116Z,18.09
2023-12-23T11:41:00.173Z,18.38
2023-12-23T11:43:27.866Z,18.48
2023-12-23T11:45:55.592Z,19.05
2023-12-23T11:48:25.889Z,18.52
2023-12-23T11:50:57.633Z,18.51
2023-12-23T11:53:24.561Z,18.16
2023-12-23T11:55:52.243Z,18.23
2023-12-23T11:58:21.085Z,18.49
2023-12-23T12:00:53.152Z,18.93
2023-12-23T12:03:19.986Z,19.19
2023-12-23T12:05:48.786Z,19.03
2023-12-23T12:08:16.142Z,18.98
2023-12-23T12:10:44.218Z,18.74
2023-12-23T12:13:12.117Z,19.43
2023-12-23T12:15:41.607Z,19.07
2023-12-23T12:18:08.899Z,18.77
2023-12-23T12:20:36.133Z,19.12
2023-12-23T12:23:05.295Z,18.78
2023-12-23T12:25:32.920Z,18.94
2023-12-23T12:28:00.496Z,19.05
2023-12-23T12:30:27.741Z,19.09
2023-12-23T12:32:54.969Z,19.18
2023-12-23T12:35:22.444Z,18.57
2023-12-23T12:37:50.521Z,18.25
2023-12-23T12:40:20.129Z,18.89
2023-12-23T12:42:49.248Z,19.40
2023-12-23T12:45:16.627Z,19.35
2023-12-23T12:47:43.603Z,19.59
2023-12-23T12:50:10.625Z,18.94
2023-12-23T12:52:38.575Z,19.42
2023-12-23T12:55:07.324Z,19.44
2023-12-23T12:57:36.089Z,19.19
2023-12-23T13:00:04.885Z,19.56
2023-12-23T13:02:32.713Z,18.90
2023-12-23T13:04:59.934Z,19.00
2023-12-23T13:07:26.753Z,19.44
2023-12-23T13:09:54.202Z,19.60
2023-12-23T13:12:20.950Z,19.23
2023-12-23T13:14:50.090Z,19.55
2023-12-23T13:17:16.867Z,19.69
2023-12-23T13:19:44.748Z,19.35
2023-12-23T13:22:12.877Z,19.48
2023-12-23T13:24:40.109Z,19.43
2023-12-23T13:27:08.752Z,19.45
2023-12-23T13:29:36.203Z,19.70
2023-12-23T13:32:05.769Z,19.54
2023-12-23T13:34:34.846Z,19.65
2023-12-23T13:37:03.491Z,19.34
2023-12-23T13:39:30.901Z,19.16
2023-12-23T13:41:58.346Z,19.14
2023-12-23T13:44:25.765Z,19.17
2023-12-23T13:46:53.306Z,18.91
2023-12-23T13:49:21.634Z,18.95
2023-12-23T13:51:49.192Z,19.56
2023-12-23T13:54:16.486Z,19.27
2023-12-23T13:56:43.409Z,19.85
2023-12-23T13:59:11.167Z,20.02
2023-12-23T14:01:38.644Z,21.06
2023-12-23T14:04:05.930Z,20.88
2023-12-23T14:06:35.307Z,20.76
2023-12-23T14:09:02.121Z,20.33
2023-12-23T14:11:29.421Z,21.10
2023-12-23T14:13:58.284Z,20.71
2023-12-23T14:16:25.628Z,20.00
2023-12-23T14:18:54.957Z,19.54
2023-12-23T14:21:22.275Z,19.99
2023-12-23T14:23:50.869Z,19.74
2023-12-23T14:26:19.037Z,19.80
2023-12-23T14:28:45.954Z,20.21
2023-12-23T14:31:14.596Z,20.46
2023-12-23T14:33:43.548Z,20.37
2023-12-23T14:36:11.566Z,20.34
2023-12-23T14:38:40.684Z,20.18
2023-12-23T14:41:09.678Z,19.96
2023-12-23T14:43:36.965Z,20.15
2023-12-23T14:46:04.564Z,20.13
2023-12-23T14:48:31.988Z,19.53
2023-12-23T14:50:59.364Z,19.98
2023-12-23T14:53:27.876Z,19.51
2023-12-23T14:55:55.310Z,19.68
2023-12-23T14:58:24.379Z,19.44
2023-12-23T15:00:51.057Z,19.42
2023-12-23T15:03:18.251Z,19.17
2023-12-23T15:05:45.618Z,19.62
2023-12-23T15:08:13.204Z,19.93
2023-12-23T15:10:40.573Z,20.01
2023-12-23T15:13:08.837Z,20.47
2023-12-23T15:15:37.552Z,20.45
2023-12-23T15:18:04.755Z,20.55
2023-12-23T15:20:32.022Z,19.97
2023-12-23T15:23:01.647Z,20.33
2023-12-23T15:25:28.835Z,20.00
2023-12-23T15:27:56.504Z,20.24
2023-12-23T15:30:23.726Z,20.15
2023-12-23T15:32:52.744Z,19.71
2023-12-23T15:35:20.657Z,20.09
2023-12-23T15:37:47.920Z,19.86
2023-12-23T15:40:15.515Z,20.02
2023-12-23T15:42:43.482Z,19.96
2023-12-23T15:45:11.087Z,19.60
2023-12-23T15:47:38.644Z,19.40
2023-12-23T15:50:08.286Z,19.64
2023-12-23T15:52:35.682Z,19.19
2023-12-23T15:55:03.143Z,19.46
2023-12-23T15:57:29.852Z,19.26
2023-12-23T15:59:57.209Z,19.16
2023-12-23T16:02:25.071Z,19.25
2023-12-23T16:04:52.624Z,19.59
2023-12-23T16:07:21.844Z,19.56
2023-12-23T16:09:49.760Z,19.43
2023-12-23T16:12:16.519Z,19.92
2023-12-23T16:14:44.198Z,20.25
2023-12-23T16:17:11.945Z,20.20
2023-12-23T16:19:39.375Z,20.19
2023-12-23T16:22:06.859Z,20.15
2023-12-23T16:24:35.089Z,20.07
2023-12-23T16:27:02.346Z,19.99
2023-12-23T16:29:29.637Z,19.68
2023-12-23T16:31:57.861Z,19.81
2023-12-23T16:34:25.474Z,19.60
2023-12-23T16:36:52.742Z,19.25
2023-12-23T16:39:20.696Z,19.28
2023-12-23T16:41:49.451Z,19.45
2023-12-23T16:44:16.800Z,19.67
2023-12-23T16:46:45.066Z,19.68
2023-12-23T16:49:12.492Z,19.68
2023-12-23T16:51:39.782Z,19.67
2023-12-23T16:54:08.024Z,19.65
2023-12-23T16:56:34.838Z,19.63
2023-12-23T16:59:04.067Z,19.53
2023-12-23T17:01:31.373Z,19.56
2023-12-23T17:03:58.398Z,19.44
2023-12-23T17:06:25.904Z,19.53
2023-12-23T17:08:53.203Z,19.50
2023-12-23T17:11:20.456Z,19.41
2023-12-23T17:13:48.379Z,19.42
2023-12-23T17:16:17.099Z,19.48
2023-12-23T17:18:43.894Z,19.08
2023-12-23T17:21:13.424Z,19.29
2023-12-23T17:23:40.676Z,19.20
2023-12-23T17:26:08.219Z,18.96
2023-12-23T17:28:35.665Z,19.27
2023-12-23T17:31:03.204Z,19.06
2023-12-23T17:33:31.515Z,19.25
2023-12-23T17:35:59.045Z,19.51
2023-12-23T17:38:26.393Z,19.12
2023-12-23T17:40:53.733Z,18.69
2023-12-23T17:43:21.390Z,18.43
2023-12-23T17:45:49.227Z,18.91
2023-12-23T17:48:15.888Z,18.87
2023-12-23T17:50:44.666Z,18.94
2023-12-23T17:53:11.701Z,18.84
2023-12-23T17:55:39.066Z,19.34
2023-12-23T17:58:06.222Z,18.84
2023-12-23T18:00:33.800Z,18.98
2023-12-23T18:03:00.953Z,18.67
2023-12-23T18:05:28.459Z,19.04
2023-12-23T18:07:57.780Z,19.01
2023-12-23T18:10:25.110Z,18.99
2023-12-23T18:12:54.555Z,18.34
2023-12-23T18:15:22.637Z,18.97
2023-12-23T18:17:50.295Z,18.67
2023-12-23T18:20:17.704Z,18.18
2023-12-23T18:22:45.210Z,18.93
2023-12-23T18:25:14.076Z,18.92
2023-12-23T18:27:41.485Z,18.96
2023-12-23T18:30:11.684Z,18.74
2023-12-23T18:32:39.252Z,18.26
2023-12-23T18:35:07.552Z,18.73
2023-12-23T18:37:34.824Z,18.72
2023-12-23T18:40:02.309Z,18.85
2023-12-23T18:42:31.237Z,18.63
2023-12-23T18:44:59.615Z,18.43
2023-12-23T18:47:27.291Z,18.67
2023-12-23T18:49:57.155Z,18.44
2023-12-23T18:52:24.786Z,18.49
2023-12-23T18:54:52.499Z,18.62
2023-12-23T18:57:19.304Z,18.50
2023-12-23T18:59:48.076Z,18.25
2023-12-23T19:02:15.927Z,18.60
2023-12-23T19:04:45.681Z,18.47
2023-12-23T19:07:13.738Z,18.44
2023-12-23T19:09:41.309Z,18.93
2023-12-23T19:12:08.555Z,18.99
2023-12-23T19:14:35.914Z,19.22
2023-12-23T19:17:04.907Z,18.44
2023-12-23T19:19:31.667Z,18.65
2023-12-23T19:21:59.222Z,18.78
2023-12-23T19:24:26.683Z,18.88
2023-12-23T19:26:54.346Z,18.93
2023-12-23T19:29:21.099Z,19.23
2023-12-23T19:31:48.712Z,18.90
2023-12-23T19:34:17.802Z,18.74
2023-12-23T19:36:46.206Z,18.98
2023-12-23T19:39:14.312Z,18.94
2023-12-23T19:41:42.161Z,19.24
2023-12-23T19:44:09.686Z,19.21
2023-12-23T19:46:37.493Z,18.70
2023-12-23T19:49:04.978Z,18.77
2023-12-23T19:51:36.719Z,19.01
2023-12-23T19:54:04.061Z,18.82
2023-12-23T19:56:30.936Z,19.00
2023-12-23T19:58:57.654Z,19.12
2023-12-23T20:01:24.939Z,19.50
2023-12-23T20:03:52.398Z,19.52
2023-12-23T20:06:20.397Z,19.16
2023-12-23T20:08:49.772Z,19.27
2023-12-23T20:11:24.009Z,19.31
2023-12-23T20:13:51.181Z,19.18
2023-12-23T20:16:23.614Z,19.31
2023-12-23T20:18:51.952Z,18.75
2023-12-23T20:21:22.267Z,18.84
2023-12-23T20:23:51.300Z,18.97
2023-12-23T20:26:18.088Z,19.09
2023-12-23T20:28:45.148Z,18.95
2023-12-23T20:31:12.536Z,19.16
2023-12-23T20:33:39.967Z,19.43
2023-12-23T20:36:07.563Z,19.46
2023-12-23T20:38:35.386Z,18.98
2023-12-23T20:41:04.514Z,19.00
2023-12-23T20:43:31.795Z,19.19
2023-12-23T20:45:58.515Z,19.40
2023-12-23T20:48:25.896Z,19.20
2023-12-23T20:50:55.756Z,19.39
2023-12-23T20:53:25.128Z,19.30
2023-12-23T20:55:52.566Z,18.67
2023-12-23T20:58:20.629Z,19.00
2023-12-23T21:00:48.184Z,19.08
2023-12-23T21:03:15.547Z,18.62
2023-12-23T21:05:43.867Z,19.10
2023-12-23T21:08:11.724Z,19.10
2023-12-23T21:10:39.114Z,18.61
2023-12-23T21:13:06.388Z,18.65
2023-12-23T21:15:35.489Z,18.67
2023-12-23T21:18:04.597Z,18.80
2023-12-23T21:20:31.838Z,18.45
2023-12-23T21:22:59.658Z,18.78
2023-12-23T21:25:26.861Z,18.37
2023-12-23T21:27:54.265Z,18.53
2023-12-23T21:30:21.788Z,18.05
2023-12-23T21:32:50.766Z,18.58
2023-12-23T21:35:18.369Z,18.46
2023-12-23T21:37:45.759Z,18.38
2023-12-23T21:40:13.697Z,18.16
2023-12-23T21:42:40.974Z,18.36
2023-12-23T21:45:09.410Z,18.62
2023-12-23T21:47:36.220Z,18.14
2023-12-23T21:50:05.944Z,18.20
2023-12-23T21:52:33.466Z,18.12
2023-12-23T21:55:00.202Z,18.15
2023-12-23T21:57:26.949Z,18.04
2023-12-23T21:59:54.545Z,18.35
2023-12-23T22:02:21.776Z,18.69
2023-12-23T22:04:49.200Z,18.26
2023-12-23T22:07:18.761Z,18.34
2023-12-23T22:09:46.151Z,18.61
2023-12-23T22:12:13.786Z,19.13
2023-12-23T22:14:41.509Z,18.64
2023-12-23T22:17:08.981Z,18.87
2023-12-23T22:19:37.050Z,18.47
2023-12-23T22:22:04.730Z,18.77
2023-12-23T22:24:33.521Z,18.97
2023-12-23T22:27:00.256Z,19.20
2023-12-23T22:29:27.012Z,19.06
2023-12-23T22:31:53.852Z,18.58
2023-12-23T22:34:21.205Z,18.36
2023-12-23T22:36:48.863Z,19.00
2023-12-23T22:39:16.115Z,18.98
2023-12-23T22:41:45.731Z,18.45
2023-12-23T22:44:13.225Z,18.26
2023-12-23T22:46:40.772Z,18.66
2023-12-23T22:49:08.227Z,18.52
2023-12-23T22:51:35.893Z,18.71
2023-12-23T22:54:03.259Z,18.84
2023-12-23T22:56:31.157Z,19.26
2023-12-23T22:59:00.252Z,19.15
2023-12-23T23:01:27.574Z,19.09
2023-12-23T23:03:54.783Z,18.71
2023-12-23T23:06:23.675Z,18.71
2023-12-23T23:08:51.196Z,19.37
2023-12-23T23:11:18.305Z,19.23
2023-12-23T23:13:45.149Z,19.13
2023-12-23T23:16:14.149Z,19.46
2023-12-23T23:18:42.444Z,19.67
2023-12-23T23:21:10.019Z,19.77
2023-12-23T23:23:36.737Z,19.50
2023-12-23T23:26:04.257Z,19.52
2023-12-23T23:28:32.403Z,19.69
2023-12-23T23:30:59.672Z,19.30
2023-12-23T23:33:28.748Z,19.77
2023-12-23T23:35:56.463Z,20.17
2023-12-23T23:38:24.325Z,19.38
2023-12-23T23:40:51.580Z,20.00
2023-12-23T23:43:19.254Z,19.95
2023-12-23T23:45:46.508Z,19.81
2023-12-23T23:48:14.272Z,20.11
2023-12-23T23:50:46.250Z,20.48
2023-12-23T23:53:13.669Z,20.36
2023-12-23T23:55:41.186Z,20.24
2023-12-23T23:58:08.768Z,20.45
